Marcus, North Carolina
Current Conditions -  °F | °C
As of 10:35 PM on Saturday 22 Nov 2014 (Local Time) from KSOP Reporting Station
Clear Clear  
Wind Chill: 34°   Ceiling: Unl
Heat Index: 34°   Visibility: 2.5mi
Dew Point: 25°   Wind: 0mph
Humidity: 70%   Direction: NA
Pressure: 30.33"   Gusts: NA
Location:  35.2008°N, 79.6471°W
Report Text: KSOP 230335Z AUTO 00000KT 2 1/2SM CLR 01/M04 A3033 RMK AO1 VIS 1 3/4V5
Loading
Personal Weather Stations






























Interactive Weather Map New forecast layout! Learn more

10-Day Weather Forecast

Advertisements
Track Severe Weather on mobile